Weather at Portland International Airport

Public forecast

Using degrees Fahrenheit for public forecast. Weather courtesy of forecast.io.

Current aviation weather report (METAR) for Portland International Airport

Retrieved 2022/01/26 19:53 UTC (19 minutes ago):

KPDX 261953Z 30007KT 10SM FEW002 FEW006 02/M01 A3029 RMK AO2 SLP257 T00221006

Aviation forecast (TAF) for Portland International Airport

Retrieved 2022/01/26 18:58 UTC (1 hour ago):

TAF KPDX 261756Z 2618/2718 VRB03KT 4SM BR SCT002 FM261900 VRB04KT P6SM SCT007 FM270300 11008KT P6SM FEW250 FM270700 07007KT 5SM BR SCT250 FM271500 09010G30KT 6SM BR SCT020